sensor_id;sensor_type;location;lat;lon;timestamp;pressure;altitude;pressure_sealevel;temperature;humidity
30421;BME280;17218;54.070;10.012;2023-01-05T00:00:10;100294.75;;;8.11;100.00
30421;BME280;17218;54.070;10.012;2023-01-05T00:02:37;100297.31;;;8.10;100.00
30421;BME280;17218;54.070;10.012;2023-01-05T00:05:04;100299.94;;;8.05;100.00
30421;BME280;17218;54.070;10.012;2023-01-05T00:07:30;100309.41;;;8.00;100.00
30421;BME280;17218;54.070;10.012;2023-01-05T00:09:57;100305.97;;;7.92;100.00
30421;BME280;17218;54.070;10.012;2023-01-05T00:12:23;100309.47;;;7.80;100.00
30421;BME280;17218;54.070;10.012;2023-01-05T00:15:09;100294.03;;;7.77;100.00
30421;BME280;17218;54.070;10.012;2023-01-05T00:17:53;100280.28;;;7.60;100.00
30421;BME280;17218;54.070;10.012;2023-01-05T00:20:37;100304.34;;;7.55;100.00
30421;BME280;17218;54.070;10.012;2023-01-05T00:23:21;100295.78;;;7.48;100.00
30421;BME280;17218;54.070;10.012;2023-01-05T00:25:48;100332.72;;;7.51;100.00
30421;BME280;17218;54.070;10.012;2023-01-05T00:28:14;100321.53;;;7.51;100.00
30421;BME280;17218;54.070;10.012;2023-01-05T00:30:44;100311.25;;;7.56;100.00
30421;BME280;17218;54.070;10.012;2023-01-05T00:33:13;100312.06;;;7.66;100.00
30421;BME280;17218;54.070;10.012;2023-01-05T00:35:40;100314.66;;;7.62;100.00
30421;BME280;17218;54.070;10.012;2023-01-05T00:38:07;100318.94;;;7.62;100.00
30421;BME280;17218;54.070;10.012;2023-01-05T00:40:34;100323.28;;;7.55;100.00
30421;BME280;17218;54.070;10.012;2023-01-05T00:43:01;100323.28;;;7.52;100.00
30421;BME280;17218;54.070;10.012;2023-01-05T00:45:28;100310.41;;;7.44;100.00
30421;BME280;17218;54.070;10.012;2023-01-05T00:47:55;100325.00;;;7.42;100.00
30421;BME280;17218;54.070;10.012;2023-01-05T00:50:22;100337.03;;;7.34;100.00
30421;BME280;17218;54.070;10.012;2023-01-05T00:52:49;100329.31;;;7.32;100.00
30421;BME280;17218;54.070;10.012;2023-01-05T00:55:16;100322.44;;;7.37;100.00
30421;BME280;17218;54.070;10.012;2023-01-05T00:57:42;100316.41;;;7.38;100.00
30421;BME280;17218;54.070;10.012;2023-01-05T01:00:12;100326.72;;;7.37;100.00
30421;BME280;17218;54.070;10.012;2023-01-05T01:02:39;100330.16;;;7.42;100.00
30421;BME280;17218;54.070;10.012;2023-01-05T01:05:07;100347.34;;;7.45;100.00
30421;BME280;17218;54.070;10.012;2023-01-05T01:07:34;100355.06;;;7.48;100.00
30421;BME280;17218;54.070;10.012;2023-01-05T01:10:01;100355.06;;;7.46;100.00
30421;BME280;17218;54.070;10.012;2023-01-05T01:12:27;100359.38;;;7.41;100.00
30421;BME280;17218;54.070;10.012;2023-01-05T01:14:54;100364.53;;;7.32;100.00
30421;BME280;17218;54.070;10.012;2023-01-05T01:17:20;100367.94;;;7.31;100.00
30421;BME280;17218;54.070;10.012;2023-01-05T01:19:47;100365.38;;;7.29;100.00
30421;BME280;17218;54.070;10.012;2023-01-05T01:22:15;100362.81;;;7.37;100.00
30421;BME280;17218;54.070;10.012;2023-01-05T01:24:41;100369.66;;;7.35;100.00
30421;BME280;17218;54.070;10.012;2023-01-05T01:27:08;100375.69;;;7.26;100.00
30421;BME280;17218;54.070;10.012;2023-01-05T01:29:35;100375.69;;;7.26;100.00
30421;BME280;17218;54.070;10.012;2023-01-05T01:32:01;100386.88;;;7.26;100.00
30421;BME280;17218;54.070;10.012;2023-01-05T01:34:28;100381.69;;;7.30;100.00
30421;BME280;17218;54.070;10.012;2023-01-05T01:36:55;100381.69;;;7.23;100.00
30421;BME280;17218;54.070;10.012;2023-01-05T01:39:23;100372.25;;;7.30;100.00
30421;BME280;17218;54.070;10.012;2023-01-05T01:41:49;100381.72;;;7.28;100.00
30421;BME280;17218;54.070;10.012;2023-01-05T01:44:48;100377.41;;;7.24;100.00
30421;BME280;17218;54.070;10.012;2023-01-05T01:47:19;100380.84;;;7.26;100.00
30421;BME280;17218;54.070;10.012;2023-01-05T01:49:48;100405.75;;;7.28;100.00
30421;BME280;17218;54.070;10.012;2023-01-05T01:52:16;100393.72;;;7.27;100.00
30421;BME280;17218;54.070;10.012;2023-01-05T01:54:44;100381.72;;;7.26;100.00
30421;BME280;17218;54.070;10.012;2023-01-05T01:57:12;100378.25;;;7.27;100.00
30421;BME280;17218;54.070;10.012;2023-01-05T01:59:40;100405.75;;;7.25;100.00
30421;BME280;17218;54.070;10.012;2023-01-05T02:02:07;100386.00;;;7.23;100.00
30421;BME280;17218;54.070;10.012;2023-01-05T02:04:35;100382.56;;;7.25;100.00
30421;BME280;17218;54.070;10.012;2023-01-05T02:07:02;100378.28;;;7.32;100.00
30421;BME280;17218;54.070;10.012;2023-01-05T02:09:30;100390.28;;;7.32;100.00
30421;BME280;17218;54.070;10.012;2023-01-05T02:12:05;100382.56;;;7.28;100.00
30421;BME280;17218;54.070;10.012;2023-01-05T02:14:39;100386.84;;;7.28;100.00
30421;BME280;17218;54.070;10.012;2023-01-05T02:17:17;100389.44;;;7.36;100.00
30421;BME280;17218;54.070;10.012;2023-01-05T02:29:22;100378.28;;;7.53;100.00
30421;BME280;17218;54.070;10.012;2023-01-05T02:32:02;100376.56;;;7.50;100.00
30421;BME280;17218;54.070;10.012;2023-01-05T02:34:39;100379.97;;;7.57;100.00
30421;BME280;17218;54.070;10.012;2023-01-05T02:37:10;100391.16;;;7.48;100.00
30421;BME280;17218;54.070;10.012;2023-01-05T02:39:42;100377.41;;;7.50;100.00
30421;BME280;17218;54.070;10.012;2023-01-05T02:42:13;100373.09;;;7.49;100.00
30421;BME280;17218;54.070;10.012;2023-01-05T02:44:43;100404.03;;;7.40;100.00
30421;BME280;17218;54.070;10.012;2023-01-05T02:47:41;100399.72;;;7.34;100.00
30421;BME280;17218;54.070;10.012;2023-01-05T02:50:13;100397.16;;;7.39;100.00
30421;BME280;17218;54.070;10.012;2023-01-05T02:52:46;100403.19;;;7.46;100.00
30421;BME280;17218;54.070;10.012;2023-01-05T02:55:18;100389.41;;;7.45;100.00
30421;BME280;17218;54.070;10.012;2023-01-05T02:57:49;100415.19;;;7.45;100.00
30421;BME280;17218;54.070;10.012;2023-01-05T03:00:21;100396.31;;;7.37;100.00
30421;BME280;17218;54.070;10.012;2023-01-05T03:02:53;100397.19;;;7.37;100.00
30421;BME280;17218;54.070;10.012;2023-01-05T03:05:23;100394.56;;;7.44;100.00
30421;BME280;17218;54.070;10.012;2023-01-05T03:07:52;100422.09;;;7.43;100.00
30421;BME280;17218;54.070;10.012;2023-01-05T03:10:34;100393.75;;;7.43;100.00
30421;BME280;17218;54.070;10.012;2023-01-05T03:13:19;100392.00;;;7.45;100.00
30421;BME280;17218;54.070;10.012;2023-01-05T03:16:05;100402.31;;;7.45;100.00
30421;BME280;17218;54.070;10.012;2023-01-05T03:18:34;100404.91;;;7.47;100.00
30421;BME280;17218;54.070;10.012;2023-01-05T03:21:24;100402.34;;;7.47;100.00
30421;BME280;17218;54.070;10.012;2023-01-05T03:23:50;100410.06;;;7.50;100.00
30421;BME280;17218;54.070;10.012;2023-01-05T03:26:37;100404.03;;;7.49;100.00
30421;BME280;17218;54.070;10.012;2023-01-05T03:29:22;100406.63;;;7.37;100.00
30421;BME280;17218;54.070;10.012;2023-01-05T03:32:09;100409.19;;;7.40;100.00
30421;BME280;17218;54.070;10.012;2023-01-05T03:35:01;100428.94;;;7.33;100.00
30421;BME280;17218;54.070;10.012;2023-01-05T03:37:48;100416.06;;;7.35;100.00
30421;BME280;17218;54.070;10.012;2023-01-05T03:40:20;100416.91;;;7.40;100.00
30421;BME280;17218;54.070;10.012;2023-01-05T03:42:47;100422.09;;;7.46;100.00
30421;BME280;17218;54.070;10.012;2023-01-05T03:45:15;100429.84;;;7.53;100.00
30421;BME280;17218;54.070;10.012;2023-01-05T03:47:42;100422.94;;;7.51;100.00
30421;BME280;17218;54.070;10.012;2023-01-05T03:50:11;100424.66;;;7.51;100.00
30421;BME280;17218;54.070;10.012;2023-01-05T03:52:37;100412.63;;;7.50;100.00
30421;BME280;17218;54.070;10.012;2023-01-05T03:55:04;100427.22;;;7.38;100.00
30421;BME280;17218;54.070;10.012;2023-01-05T03:57:31;100425.53;;;7.37;100.00
30421;BME280;17218;54.070;10.012;2023-01-05T03:59:58;100428.06;;;7.34;100.00
30421;BME280;17218;54.070;10.012;2023-01-05T04:02:24;100434.97;;;7.37;100.00
30421;BME280;17218;54.070;10.012;2023-01-05T04:04:51;100438.41;;;7.42;100.00
30421;BME280;17218;54.070;10.012;2023-01-05T04:07:19;100439.25;;;7.43;100.00
30421;BME280;17218;54.070;10.012;2023-01-05T04:09:45;100438.38;;;7.45;100.00
30421;BME280;17218;54.070;10.012;2023-01-05T04:12:12;100445.25;;;7.42;100.00
30421;BME280;17218;54.070;10.012;2023-01-05T04:14:38;100442.72;;;7.45;100.00
30421;BME280;17218;54.070;10.012;2023-01-05T04:17:05;100439.28;;;7.41;100.00
30421;BME280;17218;54.070;10.012;2023-01-05T04:19:32;100441.81;;;7.33;100.00
30421;BME280;17218;54.070;10.012;2023-01-05T04:21:58;100453.00;;;7.32;100.00
30421;BME280;17218;54.070;10.012;2023-01-05T04:24:26;100461.56;;;7.30;100.00
30421;BME280;17218;54.070;10.012;2023-01-05T04:26:53;100456.44;;;7.40;100.00
30421;BME280;17218;54.070;10.012;2023-01-05T04:29:19;100451.28;;;7.37;100.00
30421;BME280;17218;54.070;10.012;2023-01-05T04:31:46;100456.44;;;7.37;100.00
30421;BME280;17218;54.070;10.012;2023-01-05T04:34:13;100470.19;;;7.41;100.00
30421;BME280;17218;54.070;10.012;2023-01-05T04:36:40;100481.34;;;7.38;100.00
30421;BME280;17218;54.070;10.012;2023-01-05T04:39:06;100482.19;;;7.44;100.00
30421;BME280;17218;54.070;10.012;2023-01-05T04:41:34;100477.06;;;7.40;100.00
30421;BME280;17218;54.070;10.012;2023-01-05T04:44:01;100488.22;;;7.47;100.00
30421;BME280;17218;54.070;10.012;2023-01-05T04:46:27;100487.38;;;7.47;100.00
30421;BME280;17218;54.070;10.012;2023-01-05T04:48:54;100484.78;;;7.44;100.00
30421;BME280;17218;54.070;10.012;2023-01-05T04:51:20;100486.50;;;7.37;100.00
30421;BME280;17218;54.070;10.012;2023-01-05T04:53:47;100483.06;;;7.38;100.00
30421;BME280;17218;54.070;10.012;2023-01-05T04:56:14;100485.63;;;7.30;100.00
30421;BME280;17218;54.070;10.012;2023-01-05T04:58:42;100495.06;;;7.31;100.00
30421;BME280;17218;54.070;10.012;2023-01-05T05:01:08;100489.09;;;7.32;100.00
30421;BME280;17218;54.070;10.012;2023-01-05T05:03:35;100499.38;;;7.40;100.00
30421;BME280;17218;54.070;10.012;2023-01-05T05:06:02;100513.13;;;7.37;100.00
30421;BME280;17218;54.070;10.012;2023-01-05T05:08:29;100487.34;;;7.33;100.00
30421;BME280;17218;54.070;10.012;2023-01-05T05:10:55;100510.53;;;7.34;100.00
30421;BME280;17218;54.070;10.012;2023-01-05T05:13:22;100512.28;;;7.40;100.00
30421;BME280;17218;54.070;10.012;2023-01-05T05:15:50;100495.97;;;7.39;100.00
30421;BME280;17218;54.070;10.012;2023-01-05T05:18:17;100520.00;;;7.32;100.00
30421;BME280;17218;54.070;10.012;2023-01-05T05:20:46;100517.44;;;7.35;100.00
30421;BME280;17218;54.070;10.012;2023-01-05T05:23:14;100516.56;;;7.36;100.00
30421;BME280;17218;54.070;10.012;2023-01-05T05:25:40;100519.13;;;7.35;100.00
30421;BME280;17218;54.070;10.012;2023-01-05T05:28:07;100514.00;;;7.47;100.00
30421;BME280;17218;54.070;10.012;2023-01-05T05:30:33;100537.19;;;7.47;100.00
30421;BME280;17218;54.070;10.012;2023-01-05T05:33:01;100540.63;;;7.51;100.00
30421;BME280;17218;54.070;10.012;2023-01-05T05:35:28;100528.59;;;7.42;100.00
30421;BME280;17218;54.070;10.012;2023-01-05T05:37:54;100527.72;;;7.38;100.00
30421;BME280;17218;54.070;10.012;2023-01-05T05:40:21;100549.22;;;7.44;100.00
30421;BME280;17218;54.070;10.012;2023-01-05T05:42:47;100540.63;;;7.49;100.00
30421;BME280;17218;54.070;10.012;2023-01-05T05:45:14;100539.81;;;7.55;100.00
30421;BME280;17218;54.070;10.012;2023-01-05T05:47:42;100537.22;;;7.50;100.00
30421;BME280;17218;54.070;10.012;2023-01-05T05:50:10;100535.47;;;7.51;100.00
30421;BME280;17218;54.070;10.012;2023-01-05T05:52:37;100537.22;;;7.52;100.00
30421;BME280;17218;54.070;10.012;2023-01-05T05:55:05;100548.41;;;7.56;100.00
30421;BME280;17218;54.070;10.012;2023-01-05T05:57:31;100547.53;;;7.50;100.00
30421;BME280;17218;54.070;10.012;2023-01-05T05:59:58;100547.53;;;7.54;100.00
30421;BME280;17218;54.070;10.012;2023-01-05T06:02:24;100553.53;;;7.51;100.00
30421;BME280;17218;54.070;10.012;2023-01-05T06:04:51;100550.09;;;7.47;100.00
30421;BME280;17218;54.070;10.012;2023-01-05T06:07:19;100546.66;;;7.51;100.00
30421;BME280;17218;54.070;10.012;2023-01-05T06:09:46;100540.63;;;7.49;100.00
30421;BME280;17218;54.070;10.012;2023-01-05T06:12:12;100536.34;;;7.47;100.00
30421;BME280;17218;54.070;10.012;2023-01-05T06:14:39;100546.63;;;7.40;100.00
30421;BME280;17218;54.070;10.012;2023-01-05T06:17:05;100556.94;;;7.40;100.00
30421;BME280;17218;54.070;10.012;2023-01-05T06:19:32;100562.09;;;7.42;100.00
30421;BME280;17218;54.070;10.012;2023-01-05T06:21:58;100561.22;;;7.38;100.00
30421;BME280;17218;54.070;10.012;2023-01-05T06:24:26;100562.97;;;7.39;100.00
30421;BME280;17218;54.070;10.012;2023-01-05T06:26:53;100560.38;;;7.38;100.00
30421;BME280;17218;54.070;10.012;2023-01-05T06:29:20;100575.84;;;7.43;100.00
30421;BME280;17218;54.070;10.012;2023-01-05T06:31:46;100579.28;;;7.38;100.00
30421;BME280;17218;54.070;10.012;2023-01-05T06:34:13;100570.69;;;7.43;100.00
30421;BME280;17218;54.070;10.012;2023-01-05T06:36:39;100595.59;;;7.44;100.00
30421;BME280;17218;54.070;10.012;2023-01-05T06:39:06;100581.03;;;7.50;100.00
30421;BME280;17218;54.070;10.012;2023-01-05T06:41:34;100590.50;;;7.50;100.00
30421;BME280;17218;54.070;10.012;2023-01-05T06:44:00;100608.53;;;7.47;100.00
30421;BME280;17218;54.070;10.012;2023-01-05T06:46:27;100599.94;;;7.43;100.00
30421;BME280;17218;54.070;10.012;2023-01-05T06:48:54;100615.34;;;7.40;100.00
30421;BME280;17218;54.070;10.012;2023-01-05T06:51:21;100624.81;;;7.41;100.00
30421;BME280;17218;54.070;10.012;2023-01-05T06:53:48;100649.72;;;7.40;100.00
30421;BME280;17218;54.070;10.012;2023-01-05T06:56:14;100649.72;;;7.40;100.00
30421;BME280;17218;54.070;10.012;2023-01-05T06:58:42;100651.44;;;7.40;100.00
30421;BME280;17218;54.070;10.012;2023-01-05T07:01:09;100645.44;;;7.43;100.00
30421;BME280;17218;54.070;10.012;2023-01-05T07:03:35;100669.47;;;7.42;100.00
30421;BME280;17218;54.070;10.012;2023-01-05T07:06:02;100660.91;;;7.43;100.00
30421;BME280;17218;54.070;10.012;2023-01-05T07:08:29;100672.88;;;7.31;100.00
30421;BME280;17218;54.070;10.012;2023-01-05T07:10:56;100676.34;;;7.35;100.00
30421;BME280;17218;54.070;10.012;2023-01-05T07:13:22;100682.38;;;7.38;100.00
30421;BME280;17218;54.070;10.012;2023-01-05T07:15:50;100685.75;;;7.33;100.00
30421;BME280;17218;54.070;10.012;2023-01-05T07:18:17;100703.78;;;7.28;100.00
30421;BME280;17218;54.070;10.012;2023-01-05T07:20:43;100694.38;;;7.32;100.00
30421;BME280;17218;54.070;10.012;2023-01-05T07:23:10;100702.09;;;7.30;100.00
30421;BME280;17218;54.070;10.012;2023-01-05T07:25:36;100714.97;;;7.33;100.00
30421;BME280;17218;54.070;10.012;2023-01-05T07:28:03;100730.44;;;7.32;100.00
30421;BME280;17218;54.070;10.012;2023-01-05T07:30:30;100740.75;;;7.32;100.00
30421;BME280;17218;54.070;10.012;2023-01-05T07:32:58;100726.03;;;7.16;100.00
30421;BME280;17218;54.070;10.012;2023-01-05T07:35:25;100748.25;;;6.99;100.00
30421;BME280;17218;54.070;10.012;2023-01-05T07:37:54;100772.09;;;6.79;100.00
30421;BME280;17218;54.070;10.012;2023-01-05T07:40:21;100760.00;;;6.68;100.00
30421;BME280;17218;54.070;10.012;2023-01-05T07:42:49;100784.84;;;6.63;100.00
30421;BME280;17218;54.070;10.012;2023-01-05T07:45:16;100781.28;;;6.47;100.00
30421;BME280;17218;54.070;10.012;2023-01-05T07:47:43;100790.66;;;6.43;100.00
30421;BME280;17218;54.070;10.012;2023-01-05T07:50:11;100809.41;;;6.33;100.00
30421;BME280;17218;54.070;10.012;2023-01-05T07:52:37;100827.31;;;6.25;100.00
30421;BME280;17218;54.070;10.012;2023-01-05T07:55:05;100817.78;;;6.16;100.00
30421;BME280;17218;54.070;10.012;2023-01-05T07:57:31;100840.91;;;6.13;100.00
30421;BME280;17218;54.070;10.012;2023-01-05T07:59:58;100870.88;;;6.11;100.00
30421;BME280;17218;54.070;10.012;2023-01-05T08:02:24;100852.59;;;5.91;100.00
30421;BME280;17218;54.070;10.012;2023-01-05T08:04:52;100863.44;;;5.71;100.00
30421;BME280;17218;54.070;10.012;2023-01-05T08:07:20;100876.16;;;5.61;100.00
30421;BME280;17218;54.070;10.012;2023-01-05T08:09:46;100866.66;;;5.56;100.00
30421;BME280;17218;54.070;10.012;2023-01-05T08:12:30;100877.53;;;5.41;100.00
30421;BME280;17218;54.070;10.012;2023-01-05T08:14:56;100882.47;;;5.27;100.00
30421;BME280;17218;54.070;10.012;2023-01-05T08:17:23;100896.84;;;5.18;100.00
30421;BME280;17218;54.070;10.012;2023-01-05T08:19:50;100910.38;;;5.08;100.00
30421;BME280;17218;54.070;10.012;2023-01-05T08:22:16;100913.69;;;5.02;100.00
30421;BME280;17218;54.070;10.012;2023-01-05T08:24:44;100919.78;;;5.07;100.00
30421;BME280;17218;54.070;10.012;2023-01-05T08:27:11;100937.59;;;4.99;100.00
30421;BME280;17218;54.070;10.012;2023-01-05T08:29:37;100944.59;;;5.07;100.00
30421;BME280;17218;54.070;10.012;2023-01-05T08:32:04;100947.22;;;5.08;100.00
30421;BME280;17218;54.070;10.012;2023-01-05T08:34:31;100952.94;;;4.95;100.00
30421;BME280;17218;54.070;10.012;2023-01-05T08:36:57;100956.25;;;4.89;100.00
30421;BME280;17218;54.070;10.012;2023-01-05T08:39:24;100975.06;;;4.88;100.00
30421;BME280;17218;54.070;10.012;2023-01-05T08:41:52;100966.47;;;4.87;100.00
30421;BME280;17218;54.070;10.012;2023-01-05T08:44:18;100975.91;;;4.88;100.00
30421;BME280;17218;54.070;10.012;2023-01-05T08:46:45;100977.66;;;4.89;100.00
30421;BME280;17218;54.070;10.012;2023-01-05T08:49:12;100994.16;;;5.01;100.00
30421;BME280;17218;54.070;10.012;2023-01-05T08:51:38;100990.56;;;4.94;100.00
30421;BME280;17218;54.070;10.012;2023-01-05T08:54:05;101003.34;;;4.91;100.00
30421;BME280;17218;54.070;10.012;2023-01-05T08:56:31;100999.19;;;4.98;100.00
30421;BME280;17218;54.070;10.012;2023-01-05T08:58:59;101009.66;;;5.07;100.00
30421;BME280;17218;54.070;10.012;2023-01-05T09:01:26;101021.69;;;5.10;100.00
30421;BME280;17218;54.070;10.012;2023-01-05T09:03:52;101023.63;;;5.22;100.00
30421;BME280;17218;54.070;10.012;2023-01-05T09:06:19;101032.47;;;5.36;100.00
30421;BME280;17218;54.070;10.012;2023-01-05T09:08:46;101015.41;;;5.40;100.00
30421;BME280;17218;54.070;10.012;2023-01-05T09:11:14;101037.59;;;5.36;100.00
30421;BME280;17218;54.070;10.012;2023-01-05T09:13:45;101042.81;;;5.38;100.00
30421;BME280;17218;54.070;10.012;2023-01-05T09:16:15;101045.38;;;5.38;100.00
30421;BME280;17218;54.070;10.012;2023-01-05T09:18:42;101059.13;;;5.42;100.00
30421;BME280;17218;54.070;10.012;2023-01-05T09:21:10;101052.09;;;5.33;100.00
30421;BME280;17218;54.070;10.012;2023-01-05T09:23:37;101054.63;;;5.31;100.00
30421;BME280;17218;54.070;10.012;2023-01-05T09:26:05;101067.63;;;5.37;100.00
30421;BME280;17218;54.070;10.012;2023-01-05T09:28:32;101076.25;;;5.41;100.00
30421;BME280;17218;54.070;10.012;2023-01-05T09:31:05;101080.72;;;5.52;100.00
30421;BME280;17218;54.070;10.012;2023-01-05T09:33:33;101083.09;;;5.42;100.00
30421;BME280;17218;54.070;10.012;2023-01-05T09:36:00;101089.97;;;5.42;100.00
30421;BME280;17218;54.070;10.012;2023-01-05T09:38:27;101103.81;;;5.50;100.00
30421;BME280;17218;54.070;10.012;2023-01-05T09:40:55;101087.66;;;5.56;100.00
30421;BME280;17218;54.070;10.012;2023-01-05T09:43:26;101099.94;;;5.71;100.00
30421;BME280;17218;54.070;10.012;2023-01-05T09:48:41;101107.16;;;5.91;100.00
30421;BME280;17218;54.070;10.012;2023-01-05T09:51:09;101124.41;;;5.98;100.00
30421;BME280;17218;54.070;10.012;2023-01-05T09:53:36;101120.22;;;6.03;100.00
30421;BME280;17218;54.070;10.012;2023-01-05T09:56:04;101134.00;;;6.05;100.00
30421;BME280;17218;54.070;10.012;2023-01-05T09:58:33;101138.44;;;6.14;100.00
30421;BME280;17218;54.070;10.012;2023-01-05T10:01:08;101142.84;;;6.20;100.00
30421;BME280;17218;54.070;10.012;2023-01-05T10:03:43;101143.75;;;6.24;100.00
30421;BME280;17218;54.070;10.012;2023-01-05T10:06:12;101162.78;;;6.34;100.00
30421;BME280;17218;54.070;10.012;2023-01-05T10:08:42;101146.63;;;6.42;100.00
30421;BME280;17218;54.070;10.012;2023-01-05T10:11:13;101149.50;;;6.61;100.00
30421;BME280;17218;54.070;10.012;2023-01-05T10:14:01;101155.00;;;6.85;100.00
30421;BME280;17218;54.070;10.012;2023-01-05T10:16:31;101158.47;;;6.85;100.00
30421;BME280;17218;54.070;10.012;2023-01-05T10:18:59;101159.53;;;7.01;100.00
30421;BME280;17218;54.070;10.012;2023-01-05T10:21:31;101166.66;;;7.21;100.00
30421;BME280;17218;54.070;10.012;2023-01-05T10:24:12;101167.38;;;7.09;100.00
30421;BME280;17218;54.070;10.012;2023-01-05T10:26:49;101178.31;;;6.94;100.00
30421;BME280;17218;54.070;10.012;2023-01-05T10:29:20;101180.88;;;6.92;100.00
30421;BME280;17218;54.070;10.012;2023-01-05T10:31:54;101194.66;;;6.95;100.00
30421;BME280;17218;54.070;10.012;2023-01-05T10:34:36;101201.38;;;6.86;100.00
30421;BME280;17218;54.070;10.012;2023-01-05T10:37:31;101198.84;;;6.88;100.00
30421;BME280;17218;54.070;10.012;2023-01-05T10:42:46;101209.78;;;6.73;100.00
30421;BME280;17218;54.070;10.012;2023-01-05T10:45:17;101209.66;;;6.66;100.00
30421;BME280;17218;54.070;10.012;2023-01-05T10:47:44;101217.53;;;6.74;100.00
30421;BME280;17218;54.070;10.012;2023-01-05T10:50:26;101215.91;;;6.81;100.00
30421;BME280;17218;54.070;10.012;2023-01-05T10:52:55;101214.25;;;6.85;100.00
30421;BME280;17218;54.070;10.012;2023-01-05T10:55:22;101206.31;;;6.71;100.00
30421;BME280;17218;54.070;10.012;2023-01-05T10:57:50;101217.53;;;6.74;100.00
30421;BME280;17218;54.070;10.012;2023-01-05T11:00:19;101225.47;;;6.88;100.00
30421;BME280;17218;54.070;10.012;2023-01-05T11:02:48;101228.19;;;6.99;100.00
30421;BME280;17218;54.070;10.012;2023-01-05T11:05:25;101233.34;;;6.99;100.00
30421;BME280;17218;54.070;10.012;2023-01-05T11:07:54;101229.06;;;7.00;100.00
30421;BME280;17218;54.070;10.012;2023-01-05T11:10:27;101239.41;;;7.03;100.00
30421;BME280;17218;54.070;10.012;2023-01-05T11:12:59;101232.81;;;7.19;100.00
30421;BME280;17218;54.070;10.012;2023-01-05T11:15:27;101247.47;;;7.25;100.00
30421;BME280;17218;54.070;10.012;2023-01-05T11:17:54;101250.16;;;7.33;100.00
30421;BME280;17218;54.070;10.012;2023-01-05T11:20:22;101251.22;;;7.47;100.00
30421;BME280;17218;54.070;10.012;2023-01-05T11:22:48;101244.63;;;7.68;100.00
30421;BME280;17218;54.070;10.012;2023-01-05T11:25:23;101250.84;;;7.84;100.00
30421;BME280;17218;54.070;10.012;2023-01-05T11:28:15;101246.50;;;7.80;100.00
30421;BME280;17218;54.070;10.012;2023-01-05T11:30:55;101247.38;;;7.82;100.00
30421;BME280;17218;54.070;10.012;2023-01-05T11:33:25;101252.88;;;8.10;100.00
30421;BME280;17218;54.070;10.012;2023-01-05T11:35:54;101262.63;;;8.40;100.00
30421;BME280;17218;54.070;10.012;2023-01-05T11:38:23;101267.84;;;8.43;100.00
30421;BME280;17218;54.070;10.012;2023-01-05T11:40:50;101269.91;;;8.77;100.00
30421;BME280;17218;54.070;10.012;2023-01-05T11:43:19;101267.56;;;9.06;100.00
30421;BME280;17218;54.070;10.012;2023-01-05T11:45:49;101270.03;;;8.91;100.00
30421;BME280;17218;54.070;10.012;2023-01-05T11:48:19;101271.50;;;8.62;100.00
30421;BME280;17218;54.070;10.012;2023-01-05T11:50:48;101273.00;;;8.41;100.00
30421;BME280;17218;54.070;10.012;2023-01-05T11:53:35;101286.63;;;8.29;100.00
30421;BME280;17218;54.070;10.012;2023-01-05T11:56:04;101284.78;;;8.17;100.00
30421;BME280;17218;54.070;10.012;2023-01-05T11:58:41;101289.06;;;8.15;100.00
30421;BME280;17218;54.070;10.012;2023-01-05T12:04:06;101292.19;;;7.91;100.00
30421;BME280;17218;54.070;10.012;2023-01-05T12:06:50;101288.63;;;7.82;100.00
30421;BME280;17218;54.070;10.012;2023-01-05T12:09:24;101295.56;;;7.83;100.00
30421;BME280;17218;54.070;10.012;2023-01-05T12:12:01;101297.88;;;7.64;100.00
30421;BME280;17218;54.070;10.012;2023-01-05T12:14:54;101293.66;;;7.70;100.00
30421;BME280;17218;54.070;10.012;2023-01-05T12:17:31;101305.31;;;7.44;100.00
30421;BME280;17218;54.070;10.012;2023-01-05T12:20:12;101305.41;;;7.49;100.00
30421;BME280;17218;54.070;10.012;2023-01-05T12:23:02;101306.22;;;7.48;100.00
30421;BME280;17218;54.070;10.012;2023-01-05T12:25:44;101306.19;;;7.43;100.00
30421;BME280;17218;54.070;10.012;2023-01-05T12:28:26;101312.94;;;7.36;100.00
30421;BME280;17218;54.070;10.012;2023-01-05T12:30:59;101304.97;;;7.19;100.00
30421;BME280;17218;54.070;10.012;2023-01-05T12:34:11;101307.59;;;7.24;100.00
30421;BME280;17218;54.070;10.012;2023-01-05T12:37:00;101317.28;;;7.39;100.00
30421;BME280;17218;54.070;10.012;2023-01-05T12:39:51;101318.19;;;7.43;100.00
30421;BME280;17218;54.070;10.012;2023-01-05T12:42:31;101329.47;;;7.51;100.00
30421;BME280;17218;54.070;10.012;2023-01-05T12:45:28;101336.41;;;7.54;100.00
30421;BME280;17218;54.070;10.012;2023-01-05T12:48:03;101327.94;;;7.62;100.00
30421;BME280;17218;54.070;10.012;2023-01-05T12:50:34;101335.81;;;7.73;100.00
30421;BME280;17218;54.070;10.012;2023-01-05T12:53:14;101340.19;;;7.78;100.00
30421;BME280;17218;54.070;10.012;2023-01-05T12:55:47;101341.25;;;7.95;100.00
30421;BME280;17218;54.070;10.012;2023-01-05T12:58:21;101348.31;;;8.06;100.00
30421;BME280;17218;54.070;10.012;2023-01-05T13:00:49;101347.53;;;8.15;100.00
30421;BME280;17218;54.070;10.012;2023-01-05T13:03:20;101358.34;;;7.85;100.00
30421;BME280;17218;54.070;10.012;2023-01-05T13:05:55;101361.72;;;7.81;100.00
30421;BME280;17218;54.070;10.012;2023-01-05T13:08:27;101358.28;;;7.81;100.00
30421;BME280;17218;54.070;10.012;2023-01-05T13:11:01;101366.84;;;7.78;100.00
30421;BME280;17218;54.070;10.012;2023-01-05T13:13:34;101372.03;;;7.80;100.00